createdAt,value
2018-04-16T00:01:02.026Z,15.72
2018-04-16T00:03:29.682Z,15.55
2018-04-16T00:05:57.373Z,15.63
2018-04-16T00:08:24.984Z,15.53
2018-04-16T00:10:52.681Z,15.62
2018-04-16T00:13:20.396Z,15.62
2018-04-16T00:15:48.088Z,15.64
2018-04-16T00:18:15.712Z,15.61
2018-04-16T00:20:43.365Z,15.54
2018-04-16T00:23:11.026Z,15.27
2018-04-16T00:25:38.723Z,15.11
2018-04-16T00:28:06.400Z,14.98
2018-04-16T00:30:34.058Z,14.89
2018-04-16T00:33:07.296Z,14.73
2018-04-16T00:35:40.397Z,15.08
2018-04-16T00:38:13.707Z,14.88
2018-04-16T00:40:46.902Z,15.01
2018-04-16T00:43:20.019Z,15.14
2018-04-16T00:45:53.114Z,14.94
2018-04-16T00:48:26.087Z,15.06
2018-04-16T00:50:59.244Z,14.81
2018-04-16T00:53:44.297Z,14.71
2018-04-16T00:56:17.472Z,14.91
2018-04-16T00:58:50.595Z,14.87
2018-04-16T01:01:23.857Z,14.93
2018-04-16T01:03:57.060Z,14.97
2018-04-16T01:06:30.057Z,15.01
2018-04-16T01:09:03.211Z,14.89
2018-04-16T01:11:36.408Z,14.71
2018-04-16T01:14:09.391Z,14.51
2018-04-16T01:16:42.770Z,14.50
2018-04-16T01:19:15.874Z,14.43
2018-04-16T01:21:49.149Z,14.61
2018-04-16T01:24:22.424Z,14.64
2018-04-16T01:26:55.573Z,14.51
2018-04-16T01:29:28.723Z,14.55
2018-04-16T01:32:01.899Z,14.66
2018-04-16T01:34:35.054Z,14.74
2018-04-16T01:37:08.197Z,14.77
2018-04-16T01:39:41.499Z,14.57
2018-04-16T01:42:14.849Z,14.61
2018-04-16T01:44:48.022Z,14.67
2018-04-16T01:47:21.078Z,14.61
2018-04-16T01:52:58.301Z,14.53
2018-04-16T01:55:31.507Z,14.48
2018-04-16T01:58:04.858Z,14.42
2018-04-16T02:00:38.251Z,14.43
2018-04-16T02:03:11.572Z,14.51
2018-04-16T02:05:44.741Z,14.45
2018-04-16T02:08:17.806Z,14.30
2018-04-16T02:10:50.962Z,14.35
2018-04-16T02:13:24.249Z,14.29
2018-04-16T02:15:57.343Z,14.29
2018-04-16T02:18:30.716Z,14.22
2018-04-16T02:21:03.905Z,14.11
2018-04-16T02:23:37.209Z,13.96
2018-04-16T02:26:10.307Z,14.02
2018-04-16T02:28:43.523Z,13.88
2018-04-16T02:31:16.656Z,13.61
2018-04-16T02:33:49.851Z,13.59
2018-04-16T02:36:23.019Z,13.57
2018-04-16T02:38:56.274Z,13.53
2018-04-16T02:41:29.431Z,13.67
2018-04-16T02:44:02.777Z,13.59
2018-04-16T02:46:36.062Z,13.42
2018-04-16T02:49:09.260Z,13.47
2018-04-16T02:51:42.298Z,13.49
2018-04-16T02:54:15.615Z,13.31
2018-04-16T02:56:48.908Z,13.33
2018-04-16T02:59:22.267Z,13.38
2018-04-16T03:01:55.643Z,13.32
2018-04-16T03:04:28.762Z,13.29
2018-04-16T03:10:10.515Z,13.32
2018-04-16T03:15:51.538Z,13.09
2018-04-16T03:18:24.550Z,12.96
2018-04-16T03:20:57.856Z,13.02
2018-04-16T03:23:30.966Z,13.01
2018-04-16T03:26:04.381Z,13.08
2018-04-16T03:28:37.651Z,13.05
2018-04-16T03:31:10.878Z,12.70
2018-04-16T03:33:43.999Z,12.64
2018-04-16T03:36:17.258Z,12.59
2018-04-16T03:38:50.397Z,12.71
2018-04-16T03:41:23.692Z,12.63
2018-04-16T03:43:56.972Z,12.53
2018-04-16T03:46:30.335Z,12.57
2018-04-16T03:49:03.484Z,12.42
2018-04-16T03:51:35.027Z,12.42
2018-04-16T03:54:02.724Z,12.31
2018-04-16T03:56:30.380Z,12.09
2018-04-16T03:58:57.983Z,12.30
2018-04-16T04:01:25.647Z,12.39
2018-04-16T04:03:53.255Z,12.37
2018-04-16T04:06:20.935Z,12.34
2018-04-16T04:08:48.551Z,12.38
2018-04-16T04:11:16.215Z,12.42
2018-04-16T04:13:43.842Z,12.31
2018-04-16T04:16:11.567Z,12.29
2018-04-16T04:18:39.212Z,12.36
2018-04-16T04:21:06.867Z,12.33
2018-04-16T04:23:46.237Z,12.26
2018-04-16T04:26:25.563Z,12.14
2018-04-16T04:29:04.917Z,12.17
2018-04-16T04:31:32.598Z,12.16
2018-04-16T04:34:00.211Z,12.18
2018-04-16T04:36:27.944Z,12.15
2018-04-16T04:38:55.564Z,12.16
2018-04-16T04:41:23.209Z,12.04
2018-04-16T04:43:50.910Z,12.05
2018-04-16T04:46:18.541Z,12.13
2018-04-16T04:48:46.194Z,12.13
2018-04-16T04:51:13.828Z,12.23
2018-04-16T04:53:41.504Z,12.23
2018-04-16T04:56:09.141Z,12.27
2018-04-16T04:58:36.799Z,12.31
2018-04-16T05:01:04.433Z,12.29
2018-04-16T05:03:32.154Z,12.23
2018-04-16T05:05:59.796Z,12.31
2018-04-16T05:08:27.451Z,12.35
2018-04-16T05:10:55.078Z,12.17
2018-04-16T05:13:22.728Z,12.35
2018-04-16T05:15:50.343Z,12.29
2018-04-16T05:18:18.002Z,12.34
2018-04-16T05:20:45.621Z,12.50
2018-04-16T05:25:46.982Z,12.94
2018-04-16T05:28:14.692Z,13.17
2018-04-16T05:30:42.360Z,13.41
2018-04-16T05:33:10.095Z,13.65
2018-04-16T05:35:37.738Z,13.72
2018-04-16T05:38:05.411Z,13.91
2018-04-16T05:40:33.077Z,14.27
2018-04-16T05:43:00.739Z,14.47
2018-04-16T05:45:28.428Z,14.62
2018-04-16T05:47:56.117Z,14.68
2018-04-16T05:50:23.731Z,14.75
2018-04-16T05:52:51.386Z,14.67
2018-04-16T05:55:19.012Z,14.72
2018-04-16T05:57:46.707Z,14.77
2018-04-16T06:00:14.428Z,15.01
2018-04-16T06:02:42.064Z,14.85
2018-04-16T06:05:09.741Z,15.11
2018-04-16T06:07:37.378Z,15.17
2018-04-16T06:10:05.055Z,15.51
2018-04-16T06:12:32.699Z,15.33
2018-04-16T06:15:00.430Z,15.35
2018-04-16T06:17:28.070Z,15.44
2018-04-16T06:19:55.778Z,15.92
2018-04-16T06:22:23.411Z,16.30
2018-04-16T06:24:51.235Z,16.23
2018-04-16T06:27:18.880Z,16.11
2018-04-16T06:29:46.583Z,16.28
2018-04-16T06:32:14.298Z,16.75
2018-04-16T06:34:42.062Z,16.86
2018-04-16T06:37:09.696Z,17.63
2018-04-16T06:39:37.360Z,17.74
2018-04-16T06:42:05.016Z,16.71
2018-04-16T06:44:32.670Z,17.40
2018-04-16T06:47:00.287Z,17.68
2018-04-16T06:49:27.951Z,17.13
2018-04-16T06:51:55.552Z,17.33
2018-04-16T06:54:23.247Z,17.88
2018-04-16T06:56:50.910Z,18.54
2018-04-16T06:59:18.582Z,18.35
2018-04-16T07:01:46.211Z,18.38
2018-04-16T07:04:13.854Z,18.24
2018-04-16T07:06:41.527Z,18.65
2018-04-16T07:09:09.196Z,18.72
2018-04-16T07:11:36.867Z,19.91
2018-04-16T07:14:04.507Z,20.12
2018-04-16T07:16:32.260Z,20.73
2018-04-16T07:18:59.947Z,19.72
2018-04-16T07:21:27.661Z,20.01
2018-04-16T07:23:55.308Z,20.25
2018-04-16T07:26:22.968Z,21.74
2018-04-16T07:28:50.581Z,21.95
2018-04-16T07:31:18.258Z,23.55
2018-04-16T07:33:45.898Z,22.22
2018-04-16T07:36:13.562Z,21.67
2018-04-16T07:38:41.191Z,20.86
2018-04-16T07:41:08.851Z,21.25
2018-04-16T07:43:36.498Z,22.13
2018-04-16T07:46:04.187Z,24.11
2018-04-16T07:48:31.790Z,25.57
2018-04-16T07:50:59.444Z,25.40
2018-04-16T07:53:27.064Z,27.45
2018-04-16T07:55:54.710Z,27.45
2018-04-16T07:58:22.378Z,27.75
2018-04-16T08:00:49.991Z,29.19
2018-04-16T08:03:17.669Z,28.82
2018-04-16T08:05:45.295Z,27.52
2018-04-16T08:08:12.985Z,28.88
2018-04-16T08:10:40.612Z,29.95
2018-04-16T08:13:08.339Z,28.81
2018-04-16T08:15:35.991Z,29.23
2018-04-16T08:18:03.639Z,29.24
2018-04-16T08:20:31.251Z,29.86
2018-04-16T08:22:58.942Z,30.27
2018-04-16T08:25:26.599Z,31.10
2018-04-16T08:27:54.252Z,31.24
2018-04-16T08:30:21.902Z,31.31
2018-04-16T08:32:49.579Z,31.79
2018-04-16T08:35:17.190Z,31.99
2018-04-16T08:37:44.834Z,30.58
2018-04-16T08:40:12.437Z,31.70
2018-04-16T08:42:40.090Z,31.76
2018-04-16T08:45:07.731Z,32.30
2018-04-16T08:47:35.398Z,29.82
2018-04-16T08:50:03.021Z,29.22
2018-04-16T08:52:30.676Z,28.74
2018-04-16T08:54:58.371Z,27.78
2018-04-16T08:57:26.027Z,27.41
2018-04-16T08:59:53.635Z,27.53
2018-04-16T09:02:21.336Z,27.63
2018-04-16T09:04:49.039Z,26.76
2018-04-16T09:07:16.705Z,27.33
2018-04-16T09:09:44.374Z,27.19
2018-04-16T09:12:12.042Z,27.80
2018-04-16T09:14:40.913Z,27.68
2018-04-16T09:17:08.583Z,27.98
2018-04-16T09:19:36.191Z,26.95
2018-04-16T09:22:03.840Z,28.00
2018-04-16T09:24:31.459Z,28.38
2018-04-16T09:26:59.084Z,27.85
2018-04-16T09:29:26.761Z,27.24
2018-04-16T09:31:54.403Z,26.89
2018-04-16T09:34:22.054Z,27.56
2018-04-16T09:36:49.683Z,28.31
2018-04-16T09:39:24.827Z,28.50
2018-04-16T09:41:52.533Z,27.70
2018-04-16T09:44:20.254Z,27.18
2018-04-16T09:46:47.881Z,25.54
2018-04-16T09:49:15.572Z,25.90
2018-04-16T09:51:43.223Z,27.45
2018-04-16T09:54:10.874Z,27.73
2018-04-16T09:56:38.515Z,27.69
2018-04-16T09:59:06.167Z,27.91
2018-04-16T10:01:38.588Z,27.39
2018-04-16T10:04:06.271Z,27.40
2018-04-16T10:06:33.960Z,27.70
2018-04-16T10:09:01.660Z,27.04
2018-04-16T10:11:29.318Z,26.39
2018-04-16T10:13:56.971Z,26.27
2018-04-16T10:16:24.583Z,26.20
2018-04-16T10:18:52.262Z,25.90
2018-04-16T10:21:19.874Z,25.61
2018-04-16T10:23:47.519Z,25.81
2018-04-16T10:26:15.164Z,25.38
2018-04-16T10:28:42.813Z,25.12
2018-04-16T10:31:10.475Z,24.53
2018-04-16T10:33:38.134Z,24.57
2018-04-16T10:36:05.786Z,24.40
2018-04-16T10:38:33.446Z,24.52
2018-04-16T10:41:01.121Z,24.20
2018-04-16T10:43:28.815Z,24.30
2018-04-16T10:45:56.464Z,24.40
2018-04-16T10:48:24.122Z,23.93
2018-04-16T10:50:51.761Z,23.43
2018-04-16T10:53:19.402Z,22.46
2018-04-16T10:55:47.026Z,22.94
2018-04-16T10:58:14.698Z,23.31
2018-04-16T11:00:42.343Z,22.73
2018-04-16T11:03:10.020Z,22.47
2018-04-16T11:05:37.728Z,22.83
2018-04-16T11:08:05.384Z,23.05
2018-04-16T11:10:32.992Z,23.75
2018-04-16T11:13:00.648Z,23.10
2018-04-16T11:15:28.272Z,23.38
2018-04-16T11:17:55.930Z,24.17
2018-04-16T11:20:23.551Z,24.42
2018-04-16T11:22:51.265Z,24.04
2018-04-16T11:25:18.882Z,23.80
2018-04-16T11:27:46.593Z,23.35
2018-04-16T11:30:14.261Z,24.19
2018-04-16T11:32:41.962Z,25.35
2018-04-16T11:35:15.440Z,26.14
2018-04-16T11:37:43.131Z,24.87
2018-04-16T11:40:10.816Z,23.87
2018-04-16T11:42:38.533Z,24.45
2018-04-16T11:45:06.196Z,23.77
2018-04-16T11:47:33.822Z,23.58
2018-04-16T11:50:01.510Z,23.94
2018-04-16T11:52:29.173Z,23.57
2018-04-16T11:54:56.853Z,23.26
2018-04-16T11:57:24.499Z,23.94
2018-04-16T11:59:52.155Z,23.98
2018-04-16T12:02:19.818Z,23.66
2018-04-16T12:04:47.486Z,23.97
2018-04-16T12:07:15.118Z,23.58
2018-04-16T12:09:42.790Z,22.87
2018-04-16T12:12:10.414Z,22.98
2018-04-16T12:14:38.096Z,23.26
2018-04-16T12:17:05.723Z,23.25
2018-04-16T12:19:33.419Z,23.47
2018-04-16T12:22:01.048Z,23.15
2018-04-16T12:24:28.722Z,23.27
2018-04-16T12:26:56.379Z,23.08
2018-04-16T12:29:24.035Z,23.23
2018-04-16T12:31:52.383Z,23.10
2018-04-16T12:34:20.039Z,23.41
2018-04-16T12:36:47.650Z,23.09
2018-04-16T12:39:15.309Z,22.96
2018-04-16T12:41:42.918Z,23.10
2018-04-16T12:44:10.578Z,23.16
2018-04-16T12:46:38.207Z,23.20
2018-04-16T12:49:05.865Z,23.66
2018-04-16T12:51:33.481Z,23.53
2018-04-16T12:54:01.143Z,23.92
2018-04-16T12:56:28.779Z,23.35
2018-04-16T12:58:56.544Z,23.75
2018-04-16T13:01:24.196Z,23.12
2018-04-16T13:03:51.887Z,22.69
2018-04-16T13:06:19.527Z,22.32
2018-04-16T13:08:47.233Z,22.58
2018-04-16T13:11:14.862Z,22.84
2018-04-16T13:13:42.548Z,23.03
2018-04-16T13:16:10.181Z,22.85
2018-04-16T13:18:37.834Z,23.24
2018-04-16T13:21:05.461Z,23.57
2018-04-16T13:23:33.154Z,23.48
2018-04-16T13:26:00.766Z,23.27
2018-04-16T13:28:28.451Z,23.62
2018-04-16T13:30:56.067Z,23.92
2018-04-16T13:33:23.727Z,25.38
2018-04-16T13:35:51.362Z,26.48
2018-04-16T13:38:19.047Z,26.04
2018-04-16T13:40:46.678Z,26.60
2018-04-16T13:43:14.345Z,27.43
2018-04-16T13:45:42.007Z,26.07
2018-04-16T13:48:09.658Z,25.70
2018-04-16T13:50:37.338Z,25.52
2018-04-16T13:53:04.974Z,25.63
2018-04-16T13:55:32.659Z,26.17
2018-04-16T13:58:00.269Z,26.37
2018-04-16T14:00:27.927Z,25.88
2018-04-16T14:02:55.563Z,26.17
2018-04-16T14:05:23.221Z,26.44
2018-04-16T14:07:50.861Z,25.77
2018-04-16T14:10:18.523Z,25.26
2018-04-16T14:12:46.137Z,25.42
2018-04-16T14:15:13.795Z,25.89
2018-04-16T14:17:41.428Z,25.61
2018-04-16T14:20:09.133Z,24.77
2018-04-16T14:22:36.759Z,24.03
2018-04-16T14:25:04.419Z,23.69
2018-04-16T14:27:32.106Z,23.16
2018-04-16T14:29:59.775Z,23.46
2018-04-16T14:32:27.385Z,23.63
2018-04-16T14:34:55.050Z,24.02
2018-04-16T14:37:22.691Z,24.01
2018-04-16T14:39:50.385Z,24.21
2018-04-16T14:42:18.011Z,24.48
2018-04-16T14:44:45.680Z,24.33
2018-04-16T14:47:13.352Z,24.51
2018-04-16T14:49:41.014Z,24.50
2018-04-16T14:52:08.630Z,24.05
2018-04-16T14:54:36.320Z,23.63
2018-04-16T14:57:03.957Z,25.06
2018-04-16T14:59:31.611Z,25.59
2018-04-16T15:01:59.250Z,25.74
2018-04-16T15:04:26.964Z,26.48
2018-04-16T15:06:54.586Z,27.20
2018-04-16T15:09:22.278Z,27.35
2018-04-16T15:11:49.886Z,27.82
2018-04-16T15:14:17.572Z,27.79
2018-04-16T15:16:45.206Z,27.60
2018-04-16T15:19:12.870Z,27.65
2018-04-16T15:21:40.530Z,26.78
2018-04-16T15:24:08.183Z,26.48
2018-04-16T15:26:35.852Z,26.99
2018-04-16T15:29:03.522Z,26.34
2018-04-16T15:31:31.200Z,26.32
2018-04-16T15:33:58.871Z,25.36
2018-04-16T15:36:26.493Z,24.95
2018-04-16T15:38:54.170Z,24.91
2018-04-16T15:41:21.788Z,25.09
2018-04-16T15:43:49.459Z,24.73
2018-04-16T15:46:17.139Z,24.67
2018-04-16T15:48:44.798Z,24.89
2018-04-16T15:51:12.427Z,24.61
2018-04-16T15:53:40.080Z,24.57
2018-04-16T15:56:07.711Z,24.09
2018-04-16T15:58:35.315Z,23.80
2018-04-16T16:01:03.019Z,23.76
2018-04-16T16:03:30.647Z,23.71
2018-04-16T16:05:58.334Z,23.62
2018-04-16T16:08:25.940Z,23.97
2018-04-16T16:10:53.597Z,23.66
2018-04-16T16:13:21.219Z,23.55
2018-04-16T16:15:48.868Z,23.73
2018-04-16T16:18:16.483Z,23.86
2018-04-16T16:20:44.151Z,23.57
2018-04-16T16:23:11.766Z,23.29
2018-04-16T16:25:39.466Z,23.53
2018-04-16T16:28:07.079Z,23.03
2018-04-16T16:30:34.734Z,22.79
2018-04-16T16:33:02.378Z,22.78
2018-04-16T16:35:30.030Z,22.62
2018-04-16T16:37:57.635Z,22.49
2018-04-16T16:40:25.291Z,22.39
2018-04-16T16:42:52.927Z,22.57
2018-04-16T16:45:20.586Z,22.42
2018-04-16T16:47:48.248Z,22.43
2018-04-16T16:50:15.959Z,22.39
2018-04-16T16:52:43.566Z,22.30
2018-04-16T16:55:11.212Z,22.19
2018-04-16T16:57:38.822Z,21.90
2018-04-16T17:00:06.468Z,22.07
2018-04-16T17:02:34.141Z,21.83
2018-04-16T17:05:01.787Z,21.75
2018-04-16T17:07:29.416Z,21.50
2018-04-16T17:09:57.080Z,21.35
2018-04-16T17:12:24.687Z,21.24
2018-04-16T17:14:52.351Z,21.21
2018-04-16T17:17:19.960Z,21.10
2018-04-16T17:19:47.619Z,21.04
2018-04-16T17:22:15.259Z,21.12
2018-04-16T17:24:42.955Z,20.96
2018-04-16T17:27:10.629Z,20.70
2018-04-16T17:29:38.288Z,20.69
2018-04-16T17:32:05.913Z,20.48
2018-04-16T17:34:33.558Z,20.39
2018-04-16T17:37:01.191Z,20.25
2018-04-16T17:39:28.856Z,20.21
2018-04-16T17:41:56.534Z,20.20
2018-04-16T17:44:24.188Z,20.24
2018-04-16T17:46:51.841Z,20.20
2018-04-16T17:49:19.529Z,19.80
2018-04-16T17:51:47.147Z,19.85
2018-04-16T17:54:14.794Z,19.77
2018-04-16T17:56:42.458Z,19.60
2018-04-16T17:59:10.123Z,19.75
2018-04-16T18:01:37.779Z,19.70
2018-04-16T18:04:05.438Z,19.61
2018-04-16T18:06:33.083Z,19.63
2018-04-16T18:09:00.692Z,19.44
2018-04-16T18:11:28.346Z,19.45
2018-04-16T18:13:55.957Z,19.28
2018-04-16T18:16:23.681Z,19.30
2018-04-16T18:18:51.360Z,19.25
2018-04-16T18:21:19.019Z,19.21
2018-04-16T18:23:46.643Z,19.06
2018-04-16T18:26:14.299Z,19.11
2018-04-16T18:28:41.915Z,19.02
2018-04-16T18:31:09.571Z,18.93
2018-04-16T18:33:37.203Z,18.98
2018-04-16T18:36:04.866Z,18.88
2018-04-16T18:38:32.519Z,18.68
2018-04-16T18:41:00.170Z,18.81
2018-04-16T18:43:27.779Z,18.68
2018-04-16T18:45:55.447Z,18.67
2018-04-16T18:48:23.073Z,18.56
2018-04-16T18:50:50.751Z,18.52
2018-04-16T18:53:18.373Z,18.38
2018-04-16T18:55:46.019Z,18.29
2018-04-16T18:58:13.666Z,18.32
2018-04-16T19:00:41.338Z,18.25
2018-04-16T19:03:08.958Z,18.18
2018-04-16T19:05:36.619Z,18.08
2018-04-16T19:08:04.270Z,18.05
2018-04-16T19:10:31.942Z,18.01
2018-04-16T19:12:59.569Z,17.99
2018-04-16T19:15:27.223Z,17.86
2018-04-16T19:17:57.710Z,17.96
2018-04-16T19:23:30.225Z,17.86
2018-04-16T19:25:57.883Z,17.85
2018-04-16T19:28:25.487Z,17.77
2018-04-16T19:30:53.228Z,17.84
2018-04-16T19:33:26.321Z,17.77
2018-04-16T19:35:53.983Z,17.79
2018-04-16T19:38:21.591Z,17.79
2018-04-16T19:40:49.252Z,17.73
2018-04-16T19:43:16.871Z,17.81
2018-04-16T19:45:44.524Z,17.48
2018-04-16T19:48:12.123Z,17.50
2018-04-16T19:50:39.762Z,17.47
2018-04-16T19:53:07.418Z,17.46
2018-04-16T19:55:40.709Z,17.52
2018-04-16T19:58:13.799Z,17.53
2018-04-16T20:00:41.480Z,17.22
2018-04-16T20:03:14.790Z,16.89
2018-04-16T20:05:42.479Z,17.02
2018-04-16T20:08:10.085Z,17.11
2018-04-16T20:10:37.769Z,17.12
2018-04-16T20:13:05.403Z,17.09
2018-04-16T20:15:33.060Z,17.04
2018-04-16T20:18:00.670Z,16.48
2018-04-16T20:20:28.334Z,16.46
2018-04-16T20:22:55.961Z,16.69
2018-04-16T20:25:23.632Z,16.54
2018-04-16T20:27:51.254Z,16.67
2018-04-16T20:30:18.955Z,16.74
2018-04-16T20:32:46.597Z,16.51
2018-04-16T20:35:14.266Z,16.38
2018-04-16T20:37:41.924Z,16.53
2018-04-16T20:40:09.571Z,16.60
2018-04-16T20:42:37.191Z,16.44
2018-04-16T20:45:04.840Z,16.55
2018-04-16T20:47:32.492Z,16.55
2018-04-16T20:50:00.108Z,16.50
2018-04-16T20:52:27.799Z,16.55
2018-04-16T20:54:55.466Z,16.51
2018-04-16T20:57:23.117Z,16.27
2018-04-16T20:59:50.730Z,16.00
2018-04-16T21:02:18.393Z,15.83
2018-04-16T21:04:46.003Z,16.11
2018-04-16T21:07:13.662Z,16.13
2018-04-16T21:09:41.279Z,15.83
2018-04-16T21:12:08.954Z,15.77
2018-04-16T21:14:36.585Z,15.70
2018-04-16T21:17:04.267Z,15.65
2018-04-16T21:19:31.890Z,15.88
2018-04-16T21:21:59.591Z,15.92
2018-04-16T21:24:27.249Z,15.90
2018-04-16T21:26:54.942Z,15.88
2018-04-16T21:29:22.549Z,15.80
2018-04-16T21:31:50.218Z,15.80
2018-04-16T21:34:17.831Z,15.69
2018-04-16T21:36:45.537Z,15.64
2018-04-16T21:39:13.159Z,15.55
2018-04-16T21:41:40.819Z,15.55
2018-04-16T21:44:08.447Z,15.52
2018-04-16T21:46:36.136Z,15.37
2018-04-16T21:49:03.767Z,15.38
2018-04-16T21:51:31.430Z,15.43
2018-04-16T21:53:59.034Z,15.26
2018-04-16T21:56:26.684Z,15.22
2018-04-16T21:58:54.321Z,15.06
2018-04-16T22:01:22.027Z,14.89
2018-04-16T22:03:49.631Z,15.02
2018-04-16T22:06:17.296Z,15.00
2018-04-16T22:08:44.907Z,14.97
2018-04-16T22:11:12.568Z,14.98
2018-04-16T22:13:40.190Z,14.97
2018-04-16T22:16:07.863Z,15.07
2018-04-16T22:18:35.478Z,15.02
2018-04-16T22:21:03.143Z,15.00
2018-04-16T22:23:30.746Z,14.49
2018-04-16T22:25:58.398Z,14.50
2018-04-16T22:28:26.014Z,14.61
2018-04-16T22:30:53.703Z,14.73
2018-04-16T22:33:21.327Z,14.74
2018-04-16T22:35:49.004Z,14.61
2018-04-16T22:38:16.619Z,14.56
2018-04-16T22:40:44.276Z,14.68
2018-04-16T22:43:11.906Z,14.51
2018-04-16T22:45:39.551Z,14.68
2018-04-16T22:48:07.207Z,14.60
2018-04-16T22:50:34.830Z,14.57
2018-04-16T22:53:02.508Z,14.55
2018-04-16T22:55:30.145Z,14.45
2018-04-16T22:57:57.826Z,14.56
2018-04-16T23:00:25.460Z,14.45
2018-04-16T23:02:53.118Z,14.18
2018-04-16T23:05:20.730Z,14.30
2018-04-16T23:07:48.430Z,14.33
2018-04-16T23:10:16.036Z,14.24
2018-04-16T23:12:43.682Z,14.22
2018-04-16T23:15:11.299Z,14.28
2018-04-16T23:17:38.947Z,14.28
2018-04-16T23:20:06.564Z,14.23
2018-04-16T23:22:34.226Z,14.10
2018-04-16T23:25:01.835Z,14.12
2018-04-16T23:27:29.498Z,14.03
2018-04-16T23:29:57.106Z,14.09
2018-04-16T23:32:24.783Z,14.02
2018-04-16T23:34:52.412Z,13.66
2018-04-16T23:37:20.074Z,13.88
2018-04-16T23:39:47.676Z,13.92
2018-04-16T23:42:15.367Z,13.82
2018-04-16T23:44:42.971Z,13.73
2018-04-16T23:47:10.639Z,13.67
2018-04-16T23:49:38.265Z,13.22
2018-04-16T23:52:05.922Z,12.92
2018-04-16T23:54:33.527Z,13.12
2018-04-16T23:57:01.197Z,13.38
2018-04-16T23:59:28.838Z,13.45
